sensor_id;sensor_type;location;lat;lon;timestamp;P1;durP1;ratioP1;P2;durP2;ratioP2
4047;SDS011;2038;51.728;6.674;2023-02-17T00:00:54;44.77;;;26.53;;
4047;SDS011;2038;51.728;6.674;2023-02-17T00:03:20;45.03;;;28.50;;
4047;SDS011;2038;51.728;6.674;2023-02-17T00:05:48;42.93;;;28.03;;
4047;SDS011;2038;51.728;6.674;2023-02-17T00:08:15;40.50;;;25.70;;
4047;SDS011;2038;51.728;6.674;2023-02-17T00:10:41;43.00;;;28.47;;
4047;SDS011;2038;51.728;6.674;2023-02-17T00:13:07;42.10;;;29.00;;
4047;SDS011;2038;51.728;6.674;2023-02-17T00:15:33;41.20;;;27.37;;
4047;SDS011;2038;51.728;6.674;2023-02-17T00:18:02;47.50;;;31.90;;
4047;SDS011;2038;51.728;6.674;2023-02-17T00:20:29;42.50;;;27.77;;
4047;SDS011;2038;51.728;6.674;2023-02-17T00:22:55;47.60;;;29.03;;
4047;SDS011;2038;51.728;6.674;2023-02-17T00:25:21;41.70;;;27.80;;
4047;SDS011;2038;51.728;6.674;2023-02-17T00:27:48;44.53;;;28.97;;
4047;SDS011;2038;51.728;6.674;2023-02-17T00:30:14;45.70;;;29.10;;
4047;SDS011;2038;51.728;6.674;2023-02-17T00:32:41;41.40;;;28.67;;
4047;SDS011;2038;51.728;6.674;2023-02-17T00:35:07;46.53;;;30.47;;
4047;SDS011;2038;51.728;6.674;2023-02-17T00:37:34;36.77;;;25.90;;
4047;SDS011;2038;51.728;6.674;2023-02-17T00:40:00;40.70;;;27.57;;
4047;SDS011;2038;51.728;6.674;2023-02-17T00:42:26;42.40;;;27.27;;
4047;SDS011;2038;51.728;6.674;2023-02-17T00:44:52;48.50;;;29.80;;
4047;SDS011;2038;51.728;6.674;2023-02-17T00:47:18;40.93;;;27.83;;
4047;SDS011;2038;51.728;6.674;2023-02-17T00:49:45;47.33;;;28.63;;
4047;SDS011;2038;51.728;6.674;2023-02-17T00:52:11;49.67;;;26.30;;
4047;SDS011;2038;51.728;6.674;2023-02-17T00:54:37;42.10;;;27.00;;
4047;SDS011;2038;51.728;6.674;2023-02-17T00:57:04;39.37;;;26.03;;
4047;SDS011;2038;51.728;6.674;2023-02-17T00:59:30;41.83;;;26.60;;
4047;SDS011;2038;51.728;6.674;2023-02-17T01:01:57;37.27;;;24.43;;
4047;SDS011;2038;51.728;6.674;2023-02-17T01:04:23;36.27;;;24.40;;
4047;SDS011;2038;51.728;6.674;2023-02-17T01:06:52;38.30;;;25.47;;
4047;SDS011;2038;51.728;6.674;2023-02-17T01:09:18;38.50;;;26.67;;
4047;SDS011;2038;51.728;6.674;2023-02-17T01:11:44;39.03;;;26.30;;
4047;SDS011;2038;51.728;6.674;2023-02-17T01:14:12;43.83;;;26.93;;
4047;SDS011;2038;51.728;6.674;2023-02-17T01:16:40;38.03;;;25.10;;
4047;SDS011;2038;51.728;6.674;2023-02-17T01:19:11;41.90;;;25.00;;
4047;SDS011;2038;51.728;6.674;2023-02-17T01:21:41;43.13;;;26.47;;
4047;SDS011;2038;51.728;6.674;2023-02-17T01:24:07;37.70;;;24.33;;
4047;SDS011;2038;51.728;6.674;2023-02-17T01:26:35;33.03;;;24.30;;
4047;SDS011;2038;51.728;6.674;2023-02-17T01:29:03;36.97;;;25.63;;
4047;SDS011;2038;51.728;6.674;2023-02-17T01:31:31;37.47;;;23.43;;
4047;SDS011;2038;51.728;6.674;2023-02-17T01:33:59;30.70;;;23.37;;
4047;SDS011;2038;51.728;6.674;2023-02-17T01:36:28;42.40;;;26.33;;
4047;SDS011;2038;51.728;6.674;2023-02-17T01:38:55;35.43;;;23.40;;
4047;SDS011;2038;51.728;6.674;2023-02-17T01:41:22;38.20;;;23.53;;
4047;SDS011;2038;51.728;6.674;2023-02-17T01:46:37;34.10;;;23.50;;
4047;SDS011;2038;51.728;6.674;2023-02-17T01:49:12;36.53;;;23.37;;
4047;SDS011;2038;51.728;6.674;2023-02-17T01:52:18;29.93;;;21.53;;
4047;SDS011;2038;51.728;6.674;2023-02-17T01:54:51;33.10;;;23.53;;
4047;SDS011;2038;51.728;6.674;2023-02-17T01:57:25;30.63;;;21.73;;
4047;SDS011;2038;51.728;6.674;2023-02-17T01:59:56;32.90;;;23.80;;
4047;SDS011;2038;51.728;6.674;2023-02-17T02:02:23;32.13;;;22.53;;
4047;SDS011;2038;51.728;6.674;2023-02-17T02:04:53;34.37;;;23.83;;
4047;SDS011;2038;51.728;6.674;2023-02-17T02:07:31;29.33;;;20.73;;
4047;SDS011;2038;51.728;6.674;2023-02-17T02:10:03;30.20;;;21.63;;
4047;SDS011;2038;51.728;6.674;2023-02-17T02:12:31;30.10;;;21.80;;
4047;SDS011;2038;51.728;6.674;2023-02-17T02:15:04;29.07;;;20.37;;
4047;SDS011;2038;51.728;6.674;2023-02-17T02:17:53;30.27;;;20.87;;
4047;SDS011;2038;51.728;6.674;2023-02-17T02:35:33;25.77;;;19.00;;
4047;SDS011;2038;51.728;6.674;2023-02-17T02:38:15;26.70;;;20.00;;
4047;SDS011;2038;51.728;6.674;2023-02-17T02:40:51;29.40;;;19.30;;
4047;SDS011;2038;51.728;6.674;2023-02-17T02:43:31;33.13;;;20.70;;
4047;SDS011;2038;51.728;6.674;2023-02-17T02:45:57;25.57;;;18.53;;
4047;SDS011;2038;51.728;6.674;2023-02-17T02:48:24;25.20;;;16.90;;
4047;SDS011;2038;51.728;6.674;2023-02-17T02:51:04;26.50;;;17.70;;
4047;SDS011;2038;51.728;6.674;2023-02-17T02:57:20;22.23;;;18.13;;
4047;SDS011;2038;51.728;6.674;2023-02-17T03:03:08;27.40;;;18.70;;
4047;SDS011;2038;51.728;6.674;2023-02-17T03:06:27;25.10;;;17.57;;
4047;SDS011;2038;51.728;6.674;2023-02-17T03:09:08;22.60;;;17.10;;
4047;SDS011;2038;51.728;6.674;2023-02-17T03:11:46;26.70;;;16.27;;
4047;SDS011;2038;51.728;6.674;2023-02-17T03:14:14;19.17;;;14.97;;
4047;SDS011;2038;51.728;6.674;2023-02-17T03:16:44;23.90;;;15.60;;
4047;SDS011;2038;51.728;6.674;2023-02-17T03:19:10;21.10;;;16.00;;
4047;SDS011;2038;51.728;6.674;2023-02-17T03:21:52;25.73;;;17.27;;
4047;SDS011;2038;51.728;6.674;2023-02-17T03:24:25;23.07;;;15.10;;
4047;SDS011;2038;51.728;6.674;2023-02-17T03:26:51;22.23;;;16.60;;
4047;SDS011;2038;51.728;6.674;2023-02-17T03:29:18;18.53;;;13.00;;
4047;SDS011;2038;51.728;6.674;2023-02-17T03:31:44;18.17;;;13.30;;
4047;SDS011;2038;51.728;6.674;2023-02-17T03:34:10;16.37;;;12.63;;
4047;SDS011;2038;51.728;6.674;2023-02-17T03:36:36;21.27;;;14.10;;
4047;SDS011;2038;51.728;6.674;2023-02-17T03:39:03;16.60;;;12.10;;
4047;SDS011;2038;51.728;6.674;2023-02-17T03:41:29;16.27;;;12.33;;
4047;SDS011;2038;51.728;6.674;2023-02-17T03:43:55;17.63;;;12.30;;
4047;SDS011;2038;51.728;6.674;2023-02-17T03:46:21;15.17;;;10.50;;
4047;SDS011;2038;51.728;6.674;2023-02-17T03:48:48;15.00;;;11.20;;
4047;SDS011;2038;51.728;6.674;2023-02-17T03:51:15;14.80;;;10.97;;
4047;SDS011;2038;51.728;6.674;2023-02-17T03:53:47;16.03;;;11.77;;
4047;SDS011;2038;51.728;6.674;2023-02-17T03:56:14;17.27;;;12.00;;
4047;SDS011;2038;51.728;6.674;2023-02-17T03:58:41;15.30;;;10.30;;
4047;SDS011;2038;51.728;6.674;2023-02-17T04:01:09;18.10;;;12.93;;
4047;SDS011;2038;51.728;6.674;2023-02-17T04:03:38;14.80;;;11.23;;
4047;SDS011;2038;51.728;6.674;2023-02-17T04:06:05;18.53;;;12.87;;
4047;SDS011;2038;51.728;6.674;2023-02-17T04:08:33;18.43;;;11.93;;
4047;SDS011;2038;51.728;6.674;2023-02-17T04:11:01;20.07;;;12.97;;
4047;SDS011;2038;51.728;6.674;2023-02-17T04:13:29;16.83;;;12.43;;
4047;SDS011;2038;51.728;6.674;2023-02-17T04:15:56;16.47;;;10.80;;
4047;SDS011;2038;51.728;6.674;2023-02-17T04:18:25;21.20;;;12.30;;
4047;SDS011;2038;51.728;6.674;2023-02-17T04:20:52;15.87;;;11.50;;
4047;SDS011;2038;51.728;6.674;2023-02-17T04:23:18;17.33;;;10.43;;
4047;SDS011;2038;51.728;6.674;2023-02-17T04:25:45;15.97;;;11.80;;
4047;SDS011;2038;51.728;6.674;2023-02-17T04:28:12;17.77;;;11.30;;
4047;SDS011;2038;51.728;6.674;2023-02-17T04:30:43;14.23;;;11.30;;
4047;SDS011;2038;51.728;6.674;2023-02-17T04:33:12;14.13;;;10.63;;
4047;SDS011;2038;51.728;6.674;2023-02-17T04:35:38;13.37;;;9.77;;
4047;SDS011;2038;51.728;6.674;2023-02-17T04:38:05;13.60;;;10.07;;
4047;SDS011;2038;51.728;6.674;2023-02-17T04:40:33;13.10;;;9.90;;
4047;SDS011;2038;51.728;6.674;2023-02-17T04:42:59;12.83;;;9.90;;
4047;SDS011;2038;51.728;6.674;2023-02-17T04:45:25;12.63;;;9.50;;
4047;SDS011;2038;51.728;6.674;2023-02-17T04:47:51;14.77;;;8.93;;
4047;SDS011;2038;51.728;6.674;2023-02-17T04:50:18;11.67;;;9.17;;
4047;SDS011;2038;51.728;6.674;2023-02-17T04:52:44;11.93;;;8.30;;
4047;SDS011;2038;51.728;6.674;2023-02-17T04:55:10;12.13;;;9.13;;
4047;SDS011;2038;51.728;6.674;2023-02-17T04:57:37;16.60;;;9.93;;
4047;SDS011;2038;51.728;6.674;2023-02-17T05:00:04;10.80;;;8.37;;
4047;SDS011;2038;51.728;6.674;2023-02-17T05:02:31;10.43;;;9.03;;
4047;SDS011;2038;51.728;6.674;2023-02-17T05:04:57;11.17;;;8.00;;
4047;SDS011;2038;51.728;6.674;2023-02-17T05:07:23;14.20;;;10.63;;
4047;SDS011;2038;51.728;6.674;2023-02-17T05:09:50;11.93;;;8.80;;
4047;SDS011;2038;51.728;6.674;2023-02-17T05:12:18;13.13;;;8.73;;
4047;SDS011;2038;51.728;6.674;2023-02-17T05:14:44;11.40;;;9.23;;
4047;SDS011;2038;51.728;6.674;2023-02-17T05:17:10;12.57;;;9.30;;
4047;SDS011;2038;51.728;6.674;2023-02-17T05:19:36;14.00;;;9.57;;
4047;SDS011;2038;51.728;6.674;2023-02-17T05:22:03;12.87;;;8.40;;
4047;SDS011;2038;51.728;6.674;2023-02-17T05:24:29;12.17;;;9.23;;
4047;SDS011;2038;51.728;6.674;2023-02-17T05:26:55;14.13;;;8.43;;
4047;SDS011;2038;51.728;6.674;2023-02-17T05:29:22;12.37;;;8.10;;
4047;SDS011;2038;51.728;6.674;2023-02-17T05:31:49;10.90;;;7.60;;
4047;SDS011;2038;51.728;6.674;2023-02-17T05:34:15;11.20;;;8.70;;
4047;SDS011;2038;51.728;6.674;2023-02-17T05:36:41;12.63;;;10.33;;
4047;SDS011;2038;51.728;6.674;2023-02-17T05:39:07;10.20;;;8.37;;
4047;SDS011;2038;51.728;6.674;2023-02-17T05:41:33;12.77;;;8.60;;
4047;SDS011;2038;51.728;6.674;2023-02-17T05:44:00;16.53;;;9.93;;
4047;SDS011;2038;51.728;6.674;2023-02-17T05:46:26;13.37;;;9.90;;
4047;SDS011;2038;51.728;6.674;2023-02-17T05:48:52;12.40;;;10.43;;
4047;SDS011;2038;51.728;6.674;2023-02-17T05:51:18;12.40;;;10.70;;
4047;SDS011;2038;51.728;6.674;2023-02-17T05:53:45;11.37;;;10.17;;
4047;SDS011;2038;51.728;6.674;2023-02-17T05:56:11;14.70;;;11.10;;
4047;SDS011;2038;51.728;6.674;2023-02-17T05:58:37;10.97;;;9.17;;
4047;SDS011;2038;51.728;6.674;2023-02-17T06:01:07;12.27;;;9.70;;
4047;SDS011;2038;51.728;6.674;2023-02-17T06:03:34;14.13;;;10.17;;
4047;SDS011;2038;51.728;6.674;2023-02-17T06:06:01;12.47;;;9.90;;
4047;SDS011;2038;51.728;6.674;2023-02-17T06:08:28;12.50;;;9.40;;
4047;SDS011;2038;51.728;6.674;2023-02-17T06:10:54;14.53;;;10.17;;
4047;SDS011;2038;51.728;6.674;2023-02-17T06:13:20;10.30;;;8.43;;
4047;SDS011;2038;51.728;6.674;2023-02-17T06:15:47;13.40;;;9.70;;
4047;SDS011;2038;51.728;6.674;2023-02-17T06:18:13;11.57;;;8.73;;
4047;SDS011;2038;51.728;6.674;2023-02-17T06:20:39;15.40;;;10.40;;
4047;SDS011;2038;51.728;6.674;2023-02-17T06:23:05;13.70;;;10.33;;
4047;SDS011;2038;51.728;6.674;2023-02-17T06:25:31;14.20;;;11.10;;
4047;SDS011;2038;51.728;6.674;2023-02-17T06:27:58;11.77;;;8.90;;
4047;SDS011;2038;51.728;6.674;2023-02-17T06:30:24;15.37;;;10.80;;
4047;SDS011;2038;51.728;6.674;2023-02-17T06:32:50;15.80;;;10.10;;
4047;SDS011;2038;51.728;6.674;2023-02-17T06:35:16;16.57;;;11.00;;
4047;SDS011;2038;51.728;6.674;2023-02-17T06:37:43;16.60;;;11.10;;
4047;SDS011;2038;51.728;6.674;2023-02-17T06:40:09;17.13;;;12.23;;
4047;SDS011;2038;51.728;6.674;2023-02-17T06:42:36;20.90;;;12.77;;
4047;SDS011;2038;51.728;6.674;2023-02-17T06:45:03;20.60;;;12.43;;
4047;SDS011;2038;51.728;6.674;2023-02-17T06:47:30;17.67;;;12.07;;
4047;SDS011;2038;51.728;6.674;2023-02-17T06:49:58;25.17;;;15.27;;
4047;SDS011;2038;51.728;6.674;2023-02-17T06:52:24;24.83;;;13.30;;
4047;SDS011;2038;51.728;6.674;2023-02-17T06:54:51;23.00;;;13.77;;
4047;SDS011;2038;51.728;6.674;2023-02-17T06:57:17;23.60;;;14.00;;
4047;SDS011;2038;51.728;6.674;2023-02-17T06:59:43;19.20;;;12.63;;
4047;SDS011;2038;51.728;6.674;2023-02-17T07:02:10;20.33;;;12.73;;
4047;SDS011;2038;51.728;6.674;2023-02-17T07:04:38;23.13;;;12.63;;
4047;SDS011;2038;51.728;6.674;2023-02-17T07:07:06;18.80;;;12.90;;
4047;SDS011;2038;51.728;6.674;2023-02-17T07:09:33;24.57;;;14.10;;
4047;SDS011;2038;51.728;6.674;2023-02-17T07:12:00;22.97;;;12.10;;
4047;SDS011;2038;51.728;6.674;2023-02-17T07:14:26;17.40;;;11.90;;
4047;SDS011;2038;51.728;6.674;2023-02-17T07:16:53;21.27;;;13.03;;
4047;SDS011;2038;51.728;6.674;2023-02-17T07:19:19;20.93;;;12.90;;
4047;SDS011;2038;51.728;6.674;2023-02-17T07:21:45;21.87;;;11.83;;
4047;SDS011;2038;51.728;6.674;2023-02-17T07:24:12;22.20;;;14.03;;
4047;SDS011;2038;51.728;6.674;2023-02-17T07:26:38;21.77;;;12.67;;
4047;SDS011;2038;51.728;6.674;2023-02-17T07:29:06;23.37;;;14.47;;
4047;SDS011;2038;51.728;6.674;2023-02-17T07:31:33;22.30;;;13.77;;
4047;SDS011;2038;51.728;6.674;2023-02-17T07:34:00;20.17;;;13.50;;
4047;SDS011;2038;51.728;6.674;2023-02-17T07:36:28;25.70;;;14.13;;
4047;SDS011;2038;51.728;6.674;2023-02-17T07:38:56;21.13;;;12.63;;
4047;SDS011;2038;51.728;6.674;2023-02-17T07:41:23;22.43;;;12.83;;
4047;SDS011;2038;51.728;6.674;2023-02-17T07:43:55;19.87;;;13.60;;
4047;SDS011;2038;51.728;6.674;2023-02-17T07:46:22;22.70;;;12.40;;
4047;SDS011;2038;51.728;6.674;2023-02-17T07:48:49;20.87;;;13.53;;
4047;SDS011;2038;51.728;6.674;2023-02-17T07:51:17;24.17;;;14.10;;
4047;SDS011;2038;51.728;6.674;2023-02-17T07:53:46;19.57;;;12.97;;
4047;SDS011;2038;51.728;6.674;2023-02-17T07:56:15;20.60;;;13.10;;
4047;SDS011;2038;51.728;6.674;2023-02-17T07:58:45;22.87;;;13.53;;
4047;SDS011;2038;51.728;6.674;2023-02-17T08:01:13;26.03;;;14.40;;
4047;SDS011;2038;51.728;6.674;2023-02-17T08:03:46;29.43;;;13.00;;
4047;SDS011;2038;51.728;6.674;2023-02-17T08:06:14;21.30;;;13.10;;
4047;SDS011;2038;51.728;6.674;2023-02-17T08:08:44;22.57;;;13.70;;
4047;SDS011;2038;51.728;6.674;2023-02-17T08:11:29;30.37;;;14.40;;
4047;SDS011;2038;51.728;6.674;2023-02-17T08:14:14;19.87;;;12.83;;
4047;SDS011;2038;51.728;6.674;2023-02-17T08:16:41;20.27;;;13.60;;
4047;SDS011;2038;51.728;6.674;2023-02-17T08:19:07;19.53;;;12.10;;
4047;SDS011;2038;51.728;6.674;2023-02-17T08:21:33;20.60;;;13.73;;
4047;SDS011;2038;51.728;6.674;2023-02-17T08:24:00;25.00;;;13.57;;
4047;SDS011;2038;51.728;6.674;2023-02-17T08:26:26;25.00;;;13.30;;
4047;SDS011;2038;51.728;6.674;2023-02-17T08:28:52;23.17;;;13.37;;
4047;SDS011;2038;51.728;6.674;2023-02-17T08:31:30;19.00;;;11.00;;
4047;SDS011;2038;51.728;6.674;2023-02-17T08:34:00;16.83;;;10.90;;
4047;SDS011;2038;51.728;6.674;2023-02-17T08:36:32;20.37;;;12.93;;
4047;SDS011;2038;51.728;6.674;2023-02-17T08:39:01;19.50;;;11.83;;
4047;SDS011;2038;51.728;6.674;2023-02-17T08:41:32;24.47;;;12.27;;
4047;SDS011;2038;51.728;6.674;2023-02-17T08:44:02;22.50;;;12.90;;
4047;SDS011;2038;51.728;6.674;2023-02-17T08:46:35;21.20;;;12.50;;
4047;SDS011;2038;51.728;6.674;2023-02-17T08:49:02;19.40;;;11.67;;
4047;SDS011;2038;51.728;6.674;2023-02-17T08:51:30;18.33;;;11.80;;
4047;SDS011;2038;51.728;6.674;2023-02-17T08:53:58;19.97;;;11.70;;
4047;SDS011;2038;51.728;6.674;2023-02-17T08:56:26;18.20;;;12.20;;
4047;SDS011;2038;51.728;6.674;2023-02-17T08:58:53;16.10;;;11.20;;
4047;SDS011;2038;51.728;6.674;2023-02-17T09:01:20;18.23;;;11.40;;
4047;SDS011;2038;51.728;6.674;2023-02-17T09:03:48;22.07;;;12.10;;
4047;SDS011;2038;51.728;6.674;2023-02-17T09:06:16;19.10;;;12.17;;
4047;SDS011;2038;51.728;6.674;2023-02-17T09:08:44;21.33;;;10.93;;
4047;SDS011;2038;51.728;6.674;2023-02-17T09:11:10;14.70;;;9.90;;
4047;SDS011;2038;51.728;6.674;2023-02-17T09:13:39;17.37;;;10.10;;
4047;SDS011;2038;51.728;6.674;2023-02-17T09:16:05;17.43;;;9.90;;
4047;SDS011;2038;51.728;6.674;2023-02-17T09:18:32;13.87;;;9.27;;
4047;SDS011;2038;51.728;6.674;2023-02-17T09:20:58;17.60;;;11.23;;
4047;SDS011;2038;51.728;6.674;2023-02-17T09:23:33;13.20;;;10.00;;
4047;SDS011;2038;51.728;6.674;2023-02-17T09:26:03;15.00;;;10.13;;
4047;SDS011;2038;51.728;6.674;2023-02-17T09:28:33;16.80;;;11.37;;
4047;SDS011;2038;51.728;6.674;2023-02-17T09:31:07;16.50;;;10.40;;
4047;SDS011;2038;51.728;6.674;2023-02-17T09:33:35;14.23;;;8.87;;
4047;SDS011;2038;51.728;6.674;2023-02-17T09:36:01;15.33;;;10.13;;
4047;SDS011;2038;51.728;6.674;2023-02-17T09:38:29;16.00;;;10.20;;
4047;SDS011;2038;51.728;6.674;2023-02-17T09:40:56;14.20;;;9.60;;
4047;SDS011;2038;51.728;6.674;2023-02-17T09:43:38;17.00;;;10.60;;
4047;SDS011;2038;51.728;6.674;2023-02-17T09:46:05;15.17;;;9.53;;
4047;SDS011;2038;51.728;6.674;2023-02-17T09:48:40;16.53;;;10.83;;
4047;SDS011;2038;51.728;6.674;2023-02-17T09:51:19;16.00;;;11.20;;
4047;SDS011;2038;51.728;6.674;2023-02-17T09:54:08;15.40;;;10.60;;
4047;SDS011;2038;51.728;6.674;2023-02-17T09:56:43;14.57;;;10.20;;
4047;SDS011;2038;51.728;6.674;2023-02-17T09:59:17;20.73;;;9.70;;
4047;SDS011;2038;51.728;6.674;2023-02-17T10:02:13;14.63;;;9.57;;
4047;SDS011;2038;51.728;6.674;2023-02-17T10:04:59;14.90;;;10.80;;
4047;SDS011;2038;51.728;6.674;2023-02-17T10:07:35;14.50;;;8.40;;
4047;SDS011;2038;51.728;6.674;2023-02-17T10:10:17;20.20;;;9.87;;
4047;SDS011;2038;51.728;6.674;2023-02-17T10:12:53;13.50;;;8.77;;
4047;SDS011;2038;51.728;6.674;2023-02-17T10:15:25;17.67;;;9.97;;
4047;SDS011;2038;51.728;6.674;2023-02-17T10:18:09;15.13;;;10.60;;
4047;SDS011;2038;51.728;6.674;2023-02-17T10:21:06;14.40;;;9.33;;
4047;SDS011;2038;51.728;6.674;2023-02-17T10:23:46;13.10;;;8.83;;
4047;SDS011;2038;51.728;6.674;2023-02-17T10:34:46;11.90;;;8.27;;
4047;SDS011;2038;51.728;6.674;2023-02-17T10:37:33;17.73;;;9.57;;
4047;SDS011;2038;51.728;6.674;2023-02-17T10:40:26;10.87;;;8.03;;
4047;SDS011;2038;51.728;6.674;2023-02-17T10:43:00;12.93;;;9.27;;
4047;SDS011;2038;51.728;6.674;2023-02-17T10:45:34;11.73;;;8.93;;
4047;SDS011;2038;51.728;6.674;2023-02-17T10:48:10;14.50;;;10.00;;
4047;SDS011;2038;51.728;6.674;2023-02-17T10:50:46;12.50;;;9.27;;
4047;SDS011;2038;51.728;6.674;2023-02-17T10:53:17;11.70;;;8.33;;
4047;SDS011;2038;51.728;6.674;2023-02-17T11:01:32;9.97;;;8.40;;
4047;SDS011;2038;51.728;6.674;2023-02-17T11:04:01;12.00;;;8.43;;
4047;SDS011;2038;51.728;6.674;2023-02-17T11:06:40;11.10;;;8.37;;
4047;SDS011;2038;51.728;6.674;2023-02-17T11:09:17;11.33;;;8.67;;
4047;SDS011;2038;51.728;6.674;2023-02-17T11:12:19;11.50;;;8.20;;
4047;SDS011;2038;51.728;6.674;2023-02-17T11:14:51;12.33;;;8.87;;
4047;SDS011;2038;51.728;6.674;2023-02-17T11:19:59;10.90;;;8.70;;
4047;SDS011;2038;51.728;6.674;2023-02-17T11:25:39;10.53;;;8.17;;
4047;SDS011;2038;51.728;6.674;2023-02-17T11:28:11;8.97;;;7.63;;
4047;SDS011;2038;51.728;6.674;2023-02-17T11:30:51;9.67;;;7.80;;
4047;SDS011;2038;51.728;6.674;2023-02-17T11:33:22;9.30;;;7.17;;
4047;SDS011;2038;51.728;6.674;2023-02-17T11:36:01;8.77;;;7.30;;
4047;SDS011;2038;51.728;6.674;2023-02-17T11:41:09;11.23;;;7.57;;
4047;SDS011;2038;51.728;6.674;2023-02-17T11:43:36;10.97;;;8.00;;
4047;SDS011;2038;51.728;6.674;2023-02-17T11:46:07;10.63;;;8.00;;
4047;SDS011;2038;51.728;6.674;2023-02-17T11:57:01;10.60;;;7.00;;
4047;SDS011;2038;51.728;6.674;2023-02-17T12:00:17;9.80;;;7.37;;
4047;SDS011;2038;51.728;6.674;2023-02-17T12:06:13;8.20;;;7.30;;
4047;SDS011;2038;51.728;6.674;2023-02-17T12:09:18;8.23;;;6.50;;
4047;SDS011;2038;51.728;6.674;2023-02-17T12:12:20;9.00;;;7.33;;
4047;SDS011;2038;51.728;6.674;2023-02-17T12:27:02;9.60;;;6.60;;
4047;SDS011;2038;51.728;6.674;2023-02-17T12:30:02;8.83;;;7.37;;
4047;SDS011;2038;51.728;6.674;2023-02-17T12:33:17;9.50;;;7.10;;
4047;SDS011;2038;51.728;6.674;2023-02-17T12:36:30;11.07;;;7.53;;
4047;SDS011;2038;51.728;6.674;2023-02-17T12:39:10;10.87;;;6.73;;
4047;SDS011;2038;51.728;6.674;2023-02-17T12:41:50;9.50;;;7.87;;
4047;SDS011;2038;51.728;6.674;2023-02-17T12:44:41;7.90;;;7.10;;
4047;SDS011;2038;51.728;6.674;2023-02-17T12:47:14;10.20;;;7.77;;
4047;SDS011;2038;51.728;6.674;2023-02-17T12:50:03;9.50;;;8.43;;
4047;SDS011;2038;51.728;6.674;2023-02-17T12:52:47;11.87;;;8.17;;
4047;SDS011;2038;51.728;6.674;2023-02-17T12:55:29;11.20;;;8.67;;
4047;SDS011;2038;51.728;6.674;2023-02-17T12:58:17;12.90;;;7.73;;
4047;SDS011;2038;51.728;6.674;2023-02-17T13:00:51;9.43;;;8.20;;
4047;SDS011;2038;51.728;6.674;2023-02-17T13:03:43;10.10;;;8.47;;
4047;SDS011;2038;51.728;6.674;2023-02-17T13:09:07;13.20;;;10.57;;
4047;SDS011;2038;51.728;6.674;2023-02-17T13:14:45;11.50;;;10.10;;
4047;SDS011;2038;51.728;6.674;2023-02-17T13:17:26;11.03;;;9.53;;
4047;SDS011;2038;51.728;6.674;2023-02-17T13:22:36;13.80;;;11.13;;
4047;SDS011;2038;51.728;6.674;2023-02-17T13:25:12;15.53;;;11.40;;
4047;SDS011;2038;51.728;6.674;2023-02-17T13:27:59;19.67;;;12.20;;
4047;SDS011;2038;51.728;6.674;2023-02-17T13:30:40;17.37;;;14.13;;
4047;SDS011;2038;51.728;6.674;2023-02-17T13:35:44;19.53;;;14.73;;
4047;SDS011;2038;51.728;6.674;2023-02-17T13:38:11;21.30;;;15.60;;
4047;SDS011;2038;51.728;6.674;2023-02-17T13:40:57;21.33;;;17.00;;
4047;SDS011;2038;51.728;6.674;2023-02-17T13:43:28;25.10;;;19.40;;
4047;SDS011;2038;51.728;6.674;2023-02-17T13:46:04;24.70;;;17.17;;
4047;SDS011;2038;51.728;6.674;2023-02-17T13:48:40;29.90;;;20.70;;
4047;SDS011;2038;51.728;6.674;2023-02-17T13:51:07;21.80;;;17.43;;
4047;SDS011;2038;51.728;6.674;2023-02-17T13:53:53;25.70;;;17.80;;
4047;SDS011;2038;51.728;6.674;2023-02-17T13:56:26;23.40;;;17.90;;
4047;SDS011;2038;51.728;6.674;2023-02-17T14:01:41;26.70;;;20.80;;
4047;SDS011;2038;51.728;6.674;2023-02-17T14:06:50;27.00;;;20.90;;
4047;SDS011;2038;51.728;6.674;2023-02-17T14:11:53;27.67;;;21.07;;
4047;SDS011;2038;51.728;6.674;2023-02-17T14:14:25;25.20;;;19.70;;
4047;SDS011;2038;51.728;6.674;2023-02-17T14:17:03;24.10;;;18.60;;
4047;SDS011;2038;51.728;6.674;2023-02-17T14:19:40;24.03;;;17.50;;
4047;SDS011;2038;51.728;6.674;2023-02-17T14:25:11;21.63;;;16.73;;
4047;SDS011;2038;51.728;6.674;2023-02-17T14:27:49;22.03;;;15.23;;
4047;SDS011;2038;51.728;6.674;2023-02-17T14:38:35;16.80;;;12.83;;
4047;SDS011;2038;51.728;6.674;2023-02-17T14:41:05;15.73;;;14.00;;
4047;SDS011;2038;51.728;6.674;2023-02-17T14:43:34;13.83;;;12.27;;
4047;SDS011;2038;51.728;6.674;2023-02-17T14:46:01;20.47;;;13.17;;
4047;SDS011;2038;51.728;6.674;2023-02-17T14:48:27;19.07;;;13.87;;
4047;SDS011;2038;51.728;6.674;2023-02-17T14:50:56;22.07;;;14.10;;
4047;SDS011;2038;51.728;6.674;2023-02-17T14:53:24;17.63;;;13.90;;
4047;SDS011;2038;51.728;6.674;2023-02-17T14:55:58;19.20;;;11.63;;
4047;SDS011;2038;51.728;6.674;2023-02-17T14:58:33;16.40;;;12.63;;
4047;SDS011;2038;51.728;6.674;2023-02-17T15:01:00;15.17;;;11.60;;
4047;SDS011;2038;51.728;6.674;2023-02-17T15:03:26;16.37;;;11.83;;
4047;SDS011;2038;51.728;6.674;2023-02-17T15:05:52;19.07;;;12.40;;
4047;SDS011;2038;51.728;6.674;2023-02-17T15:08:20;19.93;;;13.27;;
4047;SDS011;2038;51.728;6.674;2023-02-17T15:10:58;17.70;;;12.03;;
4047;SDS011;2038;51.728;6.674;2023-02-17T15:13:25;14.63;;;11.77;;
4047;SDS011;2038;51.728;6.674;2023-02-17T15:15:52;20.90;;;14.30;;
4047;SDS011;2038;51.728;6.674;2023-02-17T15:18:18;18.23;;;14.47;;
4047;SDS011;2038;51.728;6.674;2023-02-17T15:20:46;24.30;;;13.80;;
4047;SDS011;2038;51.728;6.674;2023-02-17T15:23:15;21.67;;;15.03;;
4047;SDS011;2038;51.728;6.674;2023-02-17T15:25:49;20.43;;;11.60;;
4047;SDS011;2038;51.728;6.674;2023-02-17T15:28:18;22.30;;;11.00;;
4047;SDS011;2038;51.728;6.674;2023-02-17T15:30:49;13.43;;;10.93;;
4047;SDS011;2038;51.728;6.674;2023-02-17T15:33:19;13.20;;;10.50;;
4047;SDS011;2038;51.728;6.674;2023-02-17T15:35:47;18.40;;;11.47;;
4047;SDS011;2038;51.728;6.674;2023-02-17T15:38:20;16.83;;;11.00;;
4047;SDS011;2038;51.728;6.674;2023-02-17T15:40:48;16.70;;;11.37;;
4047;SDS011;2038;51.728;6.674;2023-02-17T15:43:17;18.80;;;12.93;;
4047;SDS011;2038;51.728;6.674;2023-02-17T15:45:47;20.83;;;11.60;;
4047;SDS011;2038;51.728;6.674;2023-02-17T15:48:20;17.90;;;12.60;;
4047;SDS011;2038;51.728;6.674;2023-02-17T15:51:03;16.60;;;11.53;;
4047;SDS011;2038;51.728;6.674;2023-02-17T15:53:32;19.00;;;11.87;;
4047;SDS011;2038;51.728;6.674;2023-02-17T15:56:09;16.67;;;11.53;;
4047;SDS011;2038;51.728;6.674;2023-02-17T15:58:46;21.23;;;10.73;;
4047;SDS011;2038;51.728;6.674;2023-02-17T16:01:18;18.40;;;12.40;;
4047;SDS011;2038;51.728;6.674;2023-02-17T16:03:57;18.50;;;11.60;;
4047;SDS011;2038;51.728;6.674;2023-02-17T16:06:30;18.70;;;12.90;;
4047;SDS011;2038;51.728;6.674;2023-02-17T16:08:56;16.67;;;11.90;;
4047;SDS011;2038;51.728;6.674;2023-02-17T16:11:27;17.20;;;13.80;;
4047;SDS011;2038;51.728;6.674;2023-02-17T16:13:59;18.77;;;13.43;;
4047;SDS011;2038;51.728;6.674;2023-02-17T16:16:30;16.87;;;12.73;;
4047;SDS011;2038;51.728;6.674;2023-02-17T16:18:58;16.20;;;12.03;;
4047;SDS011;2038;51.728;6.674;2023-02-17T16:21:25;19.93;;;12.27;;
4047;SDS011;2038;51.728;6.674;2023-02-17T16:23:52;16.10;;;12.40;;
4047;SDS011;2038;51.728;6.674;2023-02-17T16:26:24;17.17;;;11.47;;
4047;SDS011;2038;51.728;6.674;2023-02-17T16:28:58;16.17;;;10.43;;
4047;SDS011;2038;51.728;6.674;2023-02-17T16:31:26;15.33;;;10.17;;
4047;SDS011;2038;51.728;6.674;2023-02-17T16:33:56;13.43;;;11.53;;
4047;SDS011;2038;51.728;6.674;2023-02-17T16:36:24;11.27;;;8.33;;
4047;SDS011;2038;51.728;6.674;2023-02-17T16:38:55;16.40;;;8.60;;
4047;SDS011;2038;51.728;6.674;2023-02-17T16:41:21;10.80;;;8.57;;
4047;SDS011;2038;51.728;6.674;2023-02-17T16:43:47;11.80;;;8.10;;
4047;SDS011;2038;51.728;6.674;2023-02-17T16:46:19;14.20;;;8.93;;
4047;SDS011;2038;51.728;6.674;2023-02-17T16:48:53;12.43;;;8.00;;
4047;SDS011;2038;51.728;6.674;2023-02-17T16:51:22;10.67;;;7.80;;
4047;SDS011;2038;51.728;6.674;2023-02-17T16:53:51;16.37;;;13.07;;
4047;SDS011;2038;51.728;6.674;2023-02-17T16:56:33;14.10;;;8.80;;
4047;SDS011;2038;51.728;6.674;2023-02-17T16:59:03;13.20;;;8.43;;